Aérodrome :
LOGIN :

S'inscrire | Disclaimer

   EN    FR    IT 

 










Légende :    VFR   VFR Marginal   IFR   IFR Intensif   IFR Très Intensif
Visi : 
Plafond : 
>= 8 km
>= 3000ft
5 à 8 km
1000 à 3000 ft
1500m à 5 km
500 à 1000 ft
800 à 1500m
200 à 500 ft
< 800m
< 200 ft
Symboles :   Orages  Brouillard  Fortes neiges  Fortes précipitations  Vent > 20 kt
SIGMETs :   Divers  Orages  Givrage  Turbulence  Onde Orograph.  Cendres Volcan.






- Altitude de l'aérodrome : 194 ft


EBCV - Chièvres

DERNIER METAR :
  • 301925Z AUTO 18003KT 9999 OVC150/// 14/13 Q1014 BLU

METARs EXPIRÉS :
  • 301855Z AUTO 21004KT 9999 FEW009/// BKN130/// 14/13 Q1014 BLU
  • 301825Z AUTO 19004KT 9999 BKN130/// 14/13 Q1014 BLU
  • 301755Z AUTO 19004KT 9999 FEW009/// BKN120/// 14/13 Q1014 BLU
  • 301725Z AUTO 20003KT 9999 OVC095/// 14/13 Q1014 BLU
  • 301655Z AUTO 18003KT 9999 FEW006/// BKN043/// 14/13 Q1014 BLU

TAF TAF EBCV
Valide du 30 à 19h jusqu'au 01 à 07h UTC


301541Z 3019/0107 20005KT 8000 -RA FEW015 BKN030
TEMPO 3019/3020 4500 RA SCT015 OVC025
PROB30
TEMPO 3019/3020 3500 RA BKN008 OVC020
BECMG 3020/3021 9999 SCT025 BKN035
PROB30
TEMPO 0100/0106 4000 BR BY EBWM



MET'MAP, la Météo Aéronautique d'un coup d'oeil ! - Copyright ORBIFLY Décembre 2007 - Disclaimer

ORBIFLY MET'MAP TEAM :

Programmation & Développement : Alexandra Zaïnal
Sur une idée originale de : Baudouin d'Aumeries
Soutien technique & logistique : Manuel Goepfert
Assistance : Marc-Olivier Méhu




SOURCES & CREDITS :

   NOAA